createdAt,value
2019-05-03T00:04:26.831Z,15.87
2019-05-03T00:09:28.873Z,15.88
2019-05-03T00:14:32.499Z,15.89
2019-05-03T00:19:34.708Z,15.88
2019-05-03T00:24:36.819Z,15.78
2019-05-03T00:29:38.997Z,15.75
2019-05-03T00:34:46.456Z,15.84
2019-05-03T00:40:04.672Z,15.81
2019-05-03T00:45:07.593Z,15.81
2019-05-03T00:50:11.911Z,15.76
2019-05-03T00:55:17.118Z,15.77
2019-05-03T01:00:18.860Z,15.75
2019-05-03T01:05:22.698Z,15.56
2019-05-03T01:10:24.889Z,15.51
2019-05-03T01:15:39.917Z,15.45
2019-05-03T01:20:42.698Z,15.32
2019-05-03T01:25:44.914Z,15.24
2019-05-03T01:30:47.000Z,15.11
2019-05-03T01:35:49.290Z,15.04
2019-05-03T01:40:52.207Z,14.95
2019-05-03T01:45:54.436Z,14.87
2019-05-03T01:51:04.468Z,14.81
2019-05-03T01:56:06.531Z,14.69
2019-05-03T02:01:19.036Z,14.63
2019-05-03T02:06:22.397Z,14.57
2019-05-03T02:11:24.753Z,14.49
2019-05-03T02:16:26.819Z,14.38
2019-05-03T02:21:28.897Z,14.38
2019-05-03T02:26:31.771Z,14.31
2019-05-03T02:31:33.990Z,14.25
2019-05-03T02:36:37.037Z,14.17
2019-05-03T02:41:39.142Z,14.10
2019-05-03T02:46:56.032Z,14.05
2019-05-03T02:51:57.218Z,13.88
2019-05-03T02:56:59.369Z,13.74
2019-05-03T03:02:02.129Z,13.74
2019-05-03T03:07:05.698Z,13.71
2019-05-03T03:12:08.686Z,13.64
2019-05-03T03:17:14.811Z,13.63
2019-05-03T03:22:19.306Z,13.48
2019-05-03T03:27:25.610Z,13.47
2019-05-03T03:32:37.868Z,13.39
2019-05-03T03:37:37.120Z,13.42
2019-05-03T03:42:41.354Z,13.32
2019-05-03T03:47:46.349Z,13.31
2019-05-03T03:52:51.152Z,13.24
2019-05-03T03:57:55.672Z,13.22
2019-05-03T04:02:58.051Z,13.15
2019-05-03T04:08:00.221Z,13.15
2019-05-03T04:13:05.253Z,13.14
2019-05-03T04:18:30.431Z,13.15
2019-05-03T04:23:35.689Z,13.09
2019-05-03T04:28:37.630Z,13.07
2019-05-03T04:33:39.720Z,12.84
2019-05-03T04:38:41.836Z,12.66
2019-05-03T04:43:46.013Z,12.65
2019-05-03T04:48:48.214Z,12.60
2019-05-03T04:54:12.362Z,12.57
2019-05-03T04:59:15.898Z,12.57
2019-05-03T05:04:18.375Z,12.58
2019-05-03T05:09:20.458Z,12.54
2019-05-03T05:14:25.650Z,12.60
2019-05-03T05:19:42.003Z,12.66
2019-05-03T05:24:45.000Z,12.67
2019-05-03T05:29:47.196Z,12.75
2019-05-03T05:34:49.296Z,12.81
2019-05-03T05:39:51.355Z,12.93
2019-05-03T05:44:55.542Z,12.92
2019-05-03T05:50:09.640Z,12.90
2019-05-03T05:55:29.555Z,12.84
2019-05-03T06:00:36.483Z,12.81
2019-05-03T06:05:39.173Z,12.87
2019-05-03T06:10:46.723Z,12.84
2019-05-03T06:15:54.861Z,12.86
2019-05-03T06:21:14.820Z,12.95
2019-05-03T06:26:35.483Z,12.97
2019-05-03T06:31:47.724Z,12.88
2019-05-03T06:36:51.772Z,13.00
2019-05-03T06:41:55.034Z,12.99
2019-05-03T06:47:01.050Z,12.94
2019-05-03T06:52:01.270Z,12.91
2019-05-03T06:57:05.661Z,12.94
2019-05-03T07:02:28.545Z,12.98
2019-05-03T07:07:37.832Z,13.02
2019-05-03T07:12:57.928Z,13.05
2019-05-03T07:18:00.058Z,13.20
2019-05-03T07:23:04.271Z,13.19
2019-05-03T07:28:06.125Z,13.35
2019-05-03T07:33:15.025Z,13.48
2019-05-03T07:38:17.180Z,13.65
2019-05-03T07:43:19.226Z,14.08
2019-05-03T07:48:21.279Z,14.46
2019-05-03T07:53:25.214Z,14.56
2019-05-03T07:58:27.780Z,14.33
2019-05-03T08:03:29.828Z,14.24
2019-05-03T08:08:31.925Z,14.10
2019-05-03T08:13:35.612Z,14.12
2019-05-03T08:18:37.934Z,14.36
2019-05-03T08:23:40.042Z,14.51
2019-05-03T08:28:44.402Z,14.52
2019-05-03T08:34:05.741Z,14.72
2019-05-03T08:39:08.424Z,14.66
2019-05-03T08:44:10.671Z,14.73
2019-05-03T08:49:14.965Z,14.78
2019-05-03T08:54:17.751Z,14.83
2019-05-03T08:59:28.757Z,14.80
2019-05-03T09:04:36.122Z,14.84
2019-05-03T09:09:40.268Z,15.03
2019-05-03T09:14:45.723Z,15.20
2019-05-03T09:19:46.634Z,15.26
2019-05-03T09:24:48.760Z,15.40
2019-05-03T09:29:51.341Z,15.31
2019-05-03T09:34:55.023Z,15.22
2019-05-03T09:39:59.546Z,15.23
2019-05-03T09:45:02.004Z,15.34
2019-05-03T09:50:04.775Z,15.48
2019-05-03T09:55:10.355Z,15.79
2019-05-03T10:00:13.620Z,15.90
2019-05-03T10:05:16.150Z,15.83
2019-05-03T10:10:18.233Z,15.86
2019-05-03T10:15:39.374Z,16.00
2019-05-03T10:20:41.445Z,16.20
2019-05-03T10:25:45.475Z,16.39
2019-05-03T10:30:47.547Z,16.32
2019-05-03T10:35:49.647Z,16.35
2019-05-03T10:40:51.705Z,16.70
2019-05-03T10:45:55.684Z,16.93
2019-05-03T10:51:10.961Z,17.14
2019-05-03T10:56:22.924Z,17.16
2019-05-03T11:01:26.977Z,17.33
2019-05-03T11:06:29.064Z,17.43
2019-05-03T11:11:31.163Z,17.39
2019-05-03T11:16:35.128Z,17.38
2019-05-03T11:21:37.375Z,17.15
2019-05-03T11:26:41.195Z,16.98
2019-05-03T11:31:57.522Z,16.79
2019-05-03T11:37:18.096Z,16.81
2019-05-03T11:42:20.260Z,17.04
2019-05-03T11:47:24.923Z,17.47
2019-05-03T11:52:26.415Z,17.79
2019-05-03T11:57:28.503Z,17.77
2019-05-03T12:03:05.398Z,17.87
2019-05-03T12:08:07.556Z,17.88
2019-05-03T12:13:18.118Z,17.94
2019-05-03T12:18:20.828Z,17.88
2019-05-03T12:23:25.691Z,17.67
2019-05-03T12:28:27.482Z,17.66
2019-05-03T12:33:31.816Z,17.73
2019-05-03T12:38:34.990Z,17.66
2019-05-03T12:43:37.314Z,17.85
2019-05-03T12:48:39.398Z,17.91
2019-05-03T12:53:41.481Z,17.85
2019-05-03T12:59:09.849Z,17.78
2019-05-03T13:04:15.345Z,17.71
2019-05-03T13:09:17.536Z,17.70
2019-05-03T13:14:19.598Z,17.68
2019-05-03T13:19:21.693Z,17.37
2019-05-03T13:24:25.928Z,17.25
2019-05-03T13:29:27.896Z,17.14
2019-05-03T13:34:30.496Z,17.11
2019-05-03T13:39:32.577Z,17.18
2019-05-03T13:44:35.594Z,17.28
2019-05-03T13:49:37.965Z,17.49
2019-05-03T13:54:40.243Z,17.47
2019-05-03T13:59:44.699Z,17.36
2019-05-03T14:04:52.036Z,17.35
2019-05-03T14:09:50.289Z,17.32
2019-05-03T14:14:54.853Z,17.27
2019-05-03T14:20:19.138Z,17.14
2019-05-03T14:25:21.206Z,17.10
2019-05-03T14:30:25.243Z,16.96
2019-05-03T14:35:27.407Z,16.95
2019-05-03T14:40:29.501Z,17.06
2019-05-03T14:45:34.984Z,17.10
2019-05-03T14:50:37.308Z,17.03
2019-05-03T14:55:47.475Z,17.11
2019-05-03T15:00:56.363Z,17.08
2019-05-03T15:05:58.607Z,16.98
2019-05-03T15:11:00.959Z,16.97
2019-05-03T15:16:05.670Z,16.97
2019-05-03T15:21:07.779Z,16.76
2019-05-03T15:26:09.833Z,16.60
2019-05-03T15:31:11.952Z,16.50
2019-05-03T15:36:15.434Z,16.41
2019-05-03T15:41:17.753Z,16.36
2019-05-03T15:46:39.512Z,16.28
2019-05-03T15:51:41.686Z,16.24
2019-05-03T15:56:44.899Z,16.41
2019-05-03T16:01:47.093Z,16.45
2019-05-03T16:06:49.277Z,16.31
2019-05-03T16:11:51.323Z,16.09
2019-05-03T16:16:54.774Z,16.13
2019-05-03T16:21:57.111Z,16.15
2019-05-03T16:27:21.373Z,16.13
2019-05-03T16:32:23.499Z,16.10
2019-05-03T16:37:25.612Z,16.08
2019-05-03T16:42:27.698Z,16.01
2019-05-03T16:47:29.777Z,15.96
2019-05-03T16:52:31.832Z,15.95
2019-05-03T16:57:35.371Z,15.74
2019-05-03T17:02:37.694Z,15.71
2019-05-03T17:07:47.631Z,15.68
2019-05-03T17:12:49.686Z,15.61
2019-05-03T17:17:51.746Z,15.63
2019-05-03T17:22:55.507Z,15.62
2019-05-03T17:27:57.800Z,15.51
2019-05-03T17:32:59.879Z,15.42
2019-05-03T17:38:01.965Z,15.40
2019-05-03T17:43:14.530Z,15.42
2019-05-03T17:48:16.661Z,15.34
2019-05-03T17:53:46.949Z,15.24
2019-05-03T17:58:55.225Z,15.27
2019-05-03T18:04:06.562Z,15.19
2019-05-03T18:09:26.394Z,15.17
2019-05-03T18:14:28.429Z,15.16
2019-05-03T18:19:30.506Z,15.02
2019-05-03T18:24:35.557Z,14.97
2019-05-03T18:29:37.612Z,14.89
2019-05-03T18:34:39.706Z,14.84
2019-05-03T18:39:42.119Z,14.79
2019-05-03T18:44:48.512Z,14.71
2019-05-03T18:49:50.585Z,14.67
2019-05-03T18:54:52.761Z,14.63
2019-05-03T18:59:55.551Z,14.62
2019-05-03T19:04:58.042Z,14.59
2019-05-03T19:10:07.969Z,14.54
2019-05-03T19:15:11.373Z,14.49
2019-05-03T19:20:16.941Z,14.48
2019-05-03T19:25:19.301Z,14.46
2019-05-03T19:30:21.380Z,14.38
2019-05-03T19:35:27.277Z,14.31
2019-05-03T19:40:27.493Z,14.30
2019-05-03T19:45:29.553Z,14.29
2019-05-03T19:50:31.975Z,14.26
2019-05-03T19:55:34.129Z,14.17
2019-05-03T20:00:59.582Z,14.07
2019-05-03T20:06:14.460Z,13.96
2019-05-03T20:11:17.503Z,13.92
2019-05-03T20:16:22.389Z,13.84
2019-05-03T20:21:25.235Z,13.85
2019-05-03T20:26:27.574Z,13.85
2019-05-03T20:31:29.631Z,13.86
2019-05-03T20:36:31.766Z,13.83
2019-05-03T20:41:35.034Z,13.85
2019-05-03T20:46:56.399Z,13.88
2019-05-03T20:51:58.519Z,13.85
2019-05-03T20:57:00.596Z,13.88
2019-05-03T21:02:02.771Z,13.83
2019-05-03T21:07:05.035Z,13.82
2019-05-03T21:12:07.223Z,13.81
2019-05-03T21:17:20.284Z,13.84
2019-05-03T21:22:26.137Z,13.82
2019-05-03T21:27:28.197Z,13.77
2019-05-03T21:32:30.270Z,13.72
2019-05-03T21:37:32.359Z,13.70
2019-05-03T21:42:35.062Z,13.70
2019-05-03T21:47:43.710Z,13.58
2019-05-03T21:52:45.925Z,13.43
2019-05-03T21:57:48.006Z,13.41
2019-05-03T22:02:50.179Z,13.42
2019-05-03T22:07:52.263Z,13.44
2019-05-03T22:12:54.459Z,13.33
2019-05-03T22:18:16.311Z,13.26
2019-05-03T22:23:39.251Z,13.26
2019-05-03T22:28:41.361Z,13.25
2019-05-03T22:33:46.325Z,13.24
2019-05-03T22:38:48.733Z,13.25
2019-05-03T22:43:54.673Z,13.20
2019-05-03T22:48:57.013Z,13.18
2019-05-03T22:53:59.075Z,13.18
2019-05-03T22:59:05.347Z,13.20
2019-05-03T23:04:07.487Z,13.20
2019-05-03T23:09:09.582Z,13.24
2019-05-03T23:14:11.648Z,13.27
2019-05-03T23:19:14.930Z,13.24
2019-05-03T23:24:17.646Z,13.09
2019-05-03T23:29:19.682Z,13.15
2019-05-03T23:34:21.844Z,13.19
2019-05-03T23:39:24.917Z,13.23
2019-05-03T23:44:27.139Z,13.16
2019-05-03T23:49:29.214Z,13.12
2019-05-03T23:54:31.400Z,13.15
2019-05-03T23:59:35.275Z,13.09
